createdAt,value
2018-01-17T00:01:04.170Z,99.90
2018-01-17T00:03:31.975Z,99.90
2018-01-17T00:05:59.722Z,99.90
2018-01-17T00:08:27.480Z,99.90
2018-01-17T00:10:55.289Z,99.90
2018-01-17T00:13:23.031Z,99.90
2018-01-17T00:15:51.547Z,99.90
2018-01-17T00:18:19.354Z,99.90
2018-01-17T00:20:47.107Z,99.90
2018-01-17T00:23:14.863Z,99.90
2018-01-17T00:25:42.668Z,99.90
2018-01-17T00:28:11.175Z,99.90
2018-01-17T00:30:38.923Z,99.90
2018-01-17T00:33:06.780Z,99.90
2018-01-17T00:35:35.332Z,99.90
2018-01-17T00:38:03.121Z,99.90
2018-01-17T00:40:31.728Z,99.90
2018-01-17T00:42:59.532Z,99.90
2018-01-17T00:45:27.315Z,99.90
2018-01-17T00:47:55.921Z,99.90
2018-01-17T00:50:23.709Z,99.90
2018-01-17T00:52:51.492Z,99.90
2018-01-17T00:55:19.334Z,99.90
2018-01-17T00:57:47.119Z,99.90
2018-01-17T01:00:14.911Z,99.90
2018-01-17T01:02:43.512Z,99.90
2018-01-17T01:05:11.295Z,99.90
2018-01-17T01:07:39.077Z,99.90
2018-01-17T01:10:06.867Z,99.90
2018-01-17T01:12:34.611Z,99.90
2018-01-17T01:15:02.355Z,99.90
2018-01-17T01:17:30.156Z,99.90
2018-01-17T01:19:57.902Z,99.90
2018-01-17T01:22:25.679Z,99.90
2018-01-17T01:24:54.245Z,99.90
2018-01-17T01:27:21.983Z,99.90
2018-01-17T01:29:49.730Z,99.90
2018-01-17T01:32:17.528Z,99.90
2018-01-17T01:34:45.274Z,99.90
2018-01-17T01:37:13.031Z,99.90
2018-01-17T01:39:40.842Z,99.90
2018-01-17T01:42:09.394Z,99.90
2018-01-17T01:44:37.140Z,99.90
2018-01-17T01:47:04.937Z,99.90
2018-01-17T01:49:33.447Z,99.90
2018-01-17T01:52:01.191Z,99.90
2018-01-17T01:54:29.905Z,99.90
2018-01-17T01:56:57.651Z,99.90
2018-01-17T01:59:25.406Z,99.90
2018-01-17T02:01:53.216Z,99.90
2018-01-17T02:04:20.959Z,99.90
2018-01-17T02:06:48.699Z,99.90
2018-01-17T02:09:16.507Z,99.90
2018-01-17T02:11:44.258Z,99.90
2018-01-17T02:14:12.012Z,99.90
2018-01-17T02:16:39.810Z,99.90
2018-01-17T02:19:07.551Z,99.90
2018-01-17T02:21:35.290Z,99.90
2018-01-17T02:24:03.088Z,99.90
2018-01-17T02:26:30.843Z,99.90
2018-01-17T02:28:58.592Z,99.90
2018-01-17T02:31:26.387Z,99.90
2018-01-17T02:33:54.895Z,99.90
2018-01-17T02:36:22.656Z,99.90
2018-01-17T02:38:50.459Z,99.90
2018-01-17T02:41:18.207Z,99.90
2018-01-17T02:43:45.952Z,99.90
2018-01-17T02:46:13.751Z,99.90
2018-01-17T02:48:41.514Z,99.90
2018-01-17T02:51:09.258Z,99.90
2018-01-17T02:53:37.057Z,99.90
2018-01-17T02:56:04.799Z,99.90
2018-01-17T02:58:32.543Z,99.90
2018-01-17T03:01:00.342Z,99.90
2018-01-17T03:03:28.106Z,99.90
2018-01-17T03:05:56.617Z,99.90
2018-01-17T03:08:24.417Z,99.90
2018-01-17T03:10:52.163Z,99.90
2018-01-17T03:13:19.918Z,99.90
2018-01-17T03:15:47.715Z,99.90
2018-01-17T03:18:15.469Z,99.90
2018-01-17T03:20:43.225Z,99.90
2018-01-17T03:23:11.023Z,99.90
2018-01-17T03:25:39.540Z,99.90
2018-01-17T03:28:07.282Z,99.90
2018-01-17T03:30:35.088Z,99.90
2018-01-17T03:33:02.833Z,99.90
2018-01-17T03:35:30.579Z,99.90
2018-01-17T03:37:58.378Z,99.90
2018-01-17T03:40:26.123Z,99.90
2018-01-17T03:42:53.862Z,99.90
2018-01-17T03:45:21.660Z,99.90
2018-01-17T03:47:50.176Z,99.90
2018-01-17T03:50:18.687Z,99.90
2018-01-17T03:52:46.488Z,99.90
2018-01-17T03:55:14.229Z,99.90
2018-01-17T03:57:41.970Z,99.90
2018-01-17T04:00:09.768Z,99.90
2018-01-17T04:02:37.514Z,99.90
2018-01-17T04:05:05.262Z,99.90
2018-01-17T04:07:33.058Z,99.90
2018-01-17T04:10:00.798Z,99.90
2018-01-17T04:12:28.539Z,99.90
2018-01-17T04:14:56.338Z,99.90
2018-01-17T04:17:24.079Z,99.90
2018-01-17T04:19:51.821Z,99.90
2018-01-17T04:22:19.622Z,99.90
2018-01-17T04:24:47.370Z,99.90
2018-01-17T04:27:15.113Z,99.90
2018-01-17T04:29:42.909Z,99.90
2018-01-17T04:32:10.656Z,99.90
2018-01-17T04:34:38.397Z,99.90
2018-01-17T04:37:06.193Z,99.90
2018-01-17T04:39:33.933Z,99.90
2018-01-17T04:42:01.678Z,99.90
2018-01-17T04:44:29.527Z,99.90
2018-01-17T04:46:57.270Z,99.90
2018-01-17T04:49:25.794Z,99.90
2018-01-17T04:51:53.608Z,99.90
2018-01-17T04:54:21.359Z,99.90
2018-01-17T04:56:49.109Z,99.90
2018-01-17T04:59:16.914Z,99.90
2018-01-17T05:01:44.671Z,99.90
2018-01-17T05:04:13.192Z,99.90
2018-01-17T05:06:40.991Z,99.90
2018-01-17T05:09:08.745Z,99.90
2018-01-17T05:11:36.503Z,99.90
2018-01-17T05:14:04.302Z,99.90
2018-01-17T05:16:32.814Z,99.90
2018-01-17T05:19:00.562Z,99.90
2018-01-17T05:21:28.368Z,99.90
2018-01-17T05:23:56.114Z,99.90
2018-01-17T05:26:23.864Z,99.90
2018-01-17T05:28:51.671Z,99.90
2018-01-17T05:31:19.415Z,99.90
2018-01-17T05:33:47.163Z,99.90
2018-01-17T05:36:15.134Z,99.90
2018-01-17T05:38:42.895Z,99.90
2018-01-17T05:41:10.660Z,99.90
2018-01-17T05:43:38.461Z,99.90
2018-01-17T05:46:06.973Z,99.90
2018-01-17T05:48:34.729Z,99.90
2018-01-17T05:51:02.544Z,99.90
2018-01-17T05:53:30.292Z,99.90
2018-01-17T05:55:58.034Z,99.90
2018-01-17T05:58:25.848Z,99.90
2018-01-17T06:00:54.371Z,99.90
2018-01-17T06:03:22.127Z,99.90
2018-01-17T06:05:49.926Z,99.90
2018-01-17T06:08:17.678Z,99.90
2018-01-17T06:10:45.439Z,99.90
2018-01-17T06:13:13.246Z,99.90
2018-01-17T06:15:41.762Z,99.90
2018-01-17T06:18:09.520Z,99.90
2018-01-17T06:20:37.338Z,99.90
2018-01-17T06:23:05.845Z,99.90
2018-01-17T06:25:33.593Z,99.90
2018-01-17T06:28:01.400Z,99.90
2018-01-17T06:30:29.143Z,99.90
2018-01-17T06:32:56.898Z,99.90
2018-01-17T06:35:24.711Z,99.90
2018-01-17T06:37:52.454Z,99.90
2018-01-17T06:40:20.199Z,99.90
2018-01-17T06:42:47.997Z,99.90
2018-01-17T06:45:15.751Z,99.90
2018-01-17T06:47:43.490Z,99.90
2018-01-17T06:50:12.071Z,99.90
2018-01-17T06:52:39.819Z,99.90
2018-01-17T06:55:07.557Z,99.90
2018-01-17T06:57:35.358Z,99.90
2018-01-17T07:00:03.110Z,99.90
2018-01-17T07:02:30.855Z,99.90
2018-01-17T07:04:58.660Z,99.90
2018-01-17T07:07:26.414Z,99.90
2018-01-17T07:09:54.164Z,99.90
2018-01-17T07:12:22.734Z,99.90
2018-01-17T07:14:50.487Z,99.90
2018-01-17T07:17:18.270Z,99.90
2018-01-17T07:19:46.071Z,99.90
2018-01-17T07:22:14.630Z,99.90
2018-01-17T07:24:42.383Z,99.90
2018-01-17T07:27:10.182Z,99.90
2018-01-17T07:29:38.735Z,99.90
2018-01-17T07:32:06.490Z,99.90
2018-01-17T07:34:34.307Z,99.90
2018-01-17T07:37:02.058Z,99.90
2018-01-17T07:39:29.839Z,99.90
2018-01-17T07:41:57.648Z,99.90
2018-01-17T07:44:25.399Z,99.90
2018-01-17T07:46:53.159Z,99.90
2018-01-17T07:49:20.962Z,99.90
2018-01-17T07:51:49.473Z,99.90
2018-01-17T07:54:17.217Z,99.90
2018-01-17T07:56:45.014Z,99.90
2018-01-17T07:59:12.831Z,99.90
2018-01-17T08:01:41.343Z,99.90
2018-01-17T08:04:09.140Z,99.90
2018-01-17T08:06:36.890Z,99.90
2018-01-17T08:09:04.641Z,99.90
2018-01-17T08:11:32.434Z,99.90
2018-01-17T08:14:00.175Z,99.90
2018-01-17T08:16:27.917Z,99.90
2018-01-17T08:18:55.723Z,99.90
2018-01-17T08:21:23.466Z,99.90
2018-01-17T08:23:51.207Z,99.90
2018-01-17T08:26:19.772Z,99.90
2018-01-17T08:28:47.542Z,99.90
2018-01-17T08:31:15.282Z,99.90
2018-01-17T08:33:43.078Z,99.90
2018-01-17T08:36:10.826Z,99.90
2018-01-17T08:38:38.579Z,99.90
2018-01-17T08:41:06.386Z,99.90
2018-01-17T08:43:34.137Z,99.90
2018-01-17T08:46:01.907Z,99.90
2018-01-17T08:48:29.710Z,99.90
2018-01-17T08:50:57.458Z,99.90
2018-01-17T08:53:25.963Z,99.90
2018-01-17T08:55:53.764Z,99.90
2018-01-17T08:58:21.511Z,99.90
2018-01-17T09:00:50.027Z,99.90
2018-01-17T09:03:18.602Z,99.90
2018-01-17T09:05:46.431Z,99.90
2018-01-17T09:08:14.192Z,99.90
2018-01-17T09:10:41.997Z,99.90
2018-01-17T09:13:10.518Z,99.90
2018-01-17T09:15:38.272Z,99.90
2018-01-17T09:18:06.090Z,99.90
2018-01-17T09:20:33.912Z,99.90
2018-01-17T09:23:01.665Z,99.90
2018-01-17T09:25:29.477Z,99.90
2018-01-17T09:27:57.230Z,99.90
2018-01-17T09:30:24.983Z,99.60
2018-01-17T09:32:52.788Z,98.30
2018-01-17T09:35:21.302Z,98.50
2018-01-17T09:37:49.050Z,98.40
2018-01-17T09:40:16.859Z,98.20
2018-01-17T09:42:44.610Z,98.10
2018-01-17T09:45:12.368Z,96.50
2018-01-17T09:47:40.174Z,96.30
2018-01-17T09:50:08.697Z,96.10
2018-01-17T09:52:36.450Z,96.10
2018-01-17T09:55:04.255Z,96.50
2018-01-17T09:57:32.012Z,97.50
2018-01-17T09:59:59.762Z,96.20
2018-01-17T10:02:27.567Z,96.90
2018-01-17T10:04:56.096Z,95.00
2018-01-17T10:07:23.857Z,95.00
2018-01-17T10:09:51.667Z,96.50
2018-01-17T10:12:20.184Z,96.00
2018-01-17T10:14:47.933Z,96.00
2018-01-17T10:17:15.738Z,95.70
2018-01-17T10:19:43.481Z,96.90
2018-01-17T10:22:11.998Z,95.60
2018-01-17T10:24:39.810Z,95.60
2018-01-17T10:27:07.558Z,94.70
2018-01-17T10:29:35.316Z,95.50
2018-01-17T10:32:03.139Z,94.10
2018-01-17T10:34:30.909Z,95.80
2018-01-17T10:36:58.667Z,95.10
2018-01-17T10:39:26.482Z,94.10
2018-01-17T10:41:54.251Z,96.40
2018-01-17T10:44:22.014Z,97.60
2018-01-17T10:46:49.823Z,96.00
2018-01-17T10:49:18.339Z,96.80
2018-01-17T10:51:46.085Z,96.10
2018-01-17T10:54:13.894Z,96.20
2018-01-17T10:56:41.639Z,97.80
2018-01-17T10:59:09.381Z,96.50
2018-01-17T11:01:37.195Z,95.70
2018-01-17T11:04:04.950Z,96.90
2018-01-17T11:06:32.705Z,98.10
2018-01-17T11:09:00.528Z,98.90
2018-01-17T11:11:28.273Z,99.00
2018-01-17T11:13:56.785Z,97.90
2018-01-17T11:16:24.591Z,97.90
2018-01-17T11:18:52.342Z,99.90
2018-01-17T11:21:20.099Z,99.90
2018-01-17T11:23:47.918Z,97.20
2018-01-17T11:26:15.666Z,97.40
2018-01-17T11:28:43.423Z,99.00
2018-01-17T11:31:11.999Z,98.40
2018-01-17T11:33:40.522Z,98.20
2018-01-17T11:36:08.271Z,98.20
2018-01-17T11:38:36.070Z,97.20
2018-01-17T11:41:03.827Z,98.80
2018-01-17T11:43:31.578Z,97.80
2018-01-17T11:45:59.390Z,98.60
2018-01-17T11:48:27.926Z,96.70
2018-01-17T11:50:55.678Z,96.70
2018-01-17T11:53:23.477Z,96.20
2018-01-17T11:55:51.282Z,97.40
2018-01-17T11:58:19.030Z,96.00
2018-01-17T12:00:46.848Z,96.20
2018-01-17T12:03:14.612Z,95.20
2018-01-17T12:05:42.378Z,97.10
2018-01-17T12:08:10.186Z,97.70
2018-01-17T12:10:37.937Z,99.00
2018-01-17T12:13:05.693Z,99.90
2018-01-17T12:15:34.267Z,99.90
2018-01-17T12:18:02.775Z,98.40
2018-01-17T12:20:30.523Z,98.40
2018-01-17T12:22:58.322Z,98.60
2018-01-17T12:25:26.071Z,99.90
2018-01-17T12:27:53.822Z,99.90
2018-01-17T12:30:21.627Z,99.90
2018-01-17T12:32:49.387Z,99.90
2018-01-17T12:35:17.142Z,99.90
2018-01-17T12:37:45.711Z,99.90
2018-01-17T12:40:13.467Z,99.90
2018-01-17T12:42:41.235Z,99.90
2018-01-17T12:45:09.050Z,99.90
2018-01-17T12:47:37.560Z,99.90
2018-01-17T12:50:05.316Z,99.90
2018-01-17T12:52:33.119Z,99.90
2018-01-17T12:55:00.868Z,99.90
2018-01-17T12:57:28.624Z,99.90
2018-01-17T12:59:56.430Z,99.90
2018-01-17T13:02:24.939Z,99.90
2018-01-17T13:04:52.689Z,99.90
2018-01-17T13:07:20.502Z,99.90
2018-01-17T13:09:48.261Z,99.90
2018-01-17T13:12:16.004Z,99.90
2018-01-17T13:14:43.803Z,99.90
2018-01-17T13:17:11.549Z,99.90
2018-01-17T13:19:39.293Z,99.90
2018-01-17T13:22:07.104Z,99.90
2018-01-17T13:24:35.610Z,99.90
2018-01-17T13:27:03.358Z,99.90
2018-01-17T13:29:31.161Z,99.90
2018-01-17T13:31:58.910Z,99.90
2018-01-17T13:34:26.663Z,99.90
2018-01-17T13:36:54.506Z,99.90
2018-01-17T13:39:22.327Z,99.90
2018-01-17T13:41:50.078Z,99.90
2018-01-17T13:44:17.877Z,99.90
2018-01-17T13:46:46.398Z,99.90
2018-01-17T13:49:14.149Z,99.90
2018-01-17T13:51:41.955Z,99.90
2018-01-17T13:54:09.699Z,99.90
2018-01-17T13:56:37.478Z,99.90
2018-01-17T13:59:05.286Z,99.90
2018-01-17T14:01:33.044Z,99.90
2018-01-17T14:04:01.576Z,99.90
2018-01-17T14:06:29.371Z,99.90
2018-01-17T14:08:57.891Z,99.90
2018-01-17T14:11:25.639Z,99.90
2018-01-17T14:13:53.443Z,99.90
2018-01-17T14:16:21.177Z,99.90
2018-01-17T14:18:48.919Z,99.90
2018-01-17T14:21:16.744Z,99.90
2018-01-17T14:23:44.541Z,99.90
2018-01-17T14:26:12.296Z,99.90
2018-01-17T14:28:40.870Z,99.90
2018-01-17T14:31:09.410Z,99.90
2018-01-17T14:33:37.153Z,99.90
2018-01-17T14:36:04.955Z,99.90
2018-01-17T14:38:32.699Z,99.90
2018-01-17T14:41:00.443Z,99.90
2018-01-17T14:43:28.251Z,99.90
2018-01-17T14:45:56.758Z,99.90
2018-01-17T14:48:24.510Z,99.90
2018-01-17T14:50:52.329Z,99.90
2018-01-17T14:53:20.079Z,99.90
2018-01-17T14:55:47.834Z,99.90
2018-01-17T14:58:15.644Z,99.90
2018-01-17T15:00:44.154Z,99.90
2018-01-17T15:03:11.898Z,99.90
2018-01-17T15:05:39.722Z,99.90
2018-01-17T15:08:07.474Z,99.90
2018-01-17T15:10:35.221Z,99.90
2018-01-17T15:13:03.026Z,99.90
2018-01-17T15:15:30.767Z,99.90
2018-01-17T15:17:58.574Z,99.90
2018-01-17T15:20:26.386Z,99.90
2018-01-17T15:22:54.174Z,99.90
2018-01-17T15:25:21.928Z,99.90
2018-01-17T15:27:49.745Z,99.90
2018-01-17T15:30:17.496Z,99.90
2018-01-17T15:32:45.251Z,99.90
2018-01-17T15:35:13.055Z,99.90
2018-01-17T15:37:40.811Z,99.90
2018-01-17T15:40:08.566Z,99.90
2018-01-17T15:42:36.377Z,99.90
2018-01-17T15:45:04.885Z,99.90
2018-01-17T15:47:32.635Z,99.90
2018-01-17T15:50:12.734Z,99.90
2018-01-17T15:52:40.481Z,99.90
2018-01-17T15:55:08.288Z,99.90
2018-01-17T15:57:36.799Z,99.90
2018-01-17T16:00:04.543Z,99.90
2018-01-17T16:02:33.107Z,99.90
2018-01-17T16:05:00.865Z,99.90
2018-01-17T16:07:29.392Z,99.90
2018-01-17T16:09:57.202Z,99.90
2018-01-17T16:12:25.025Z,99.90
2018-01-17T16:14:53.554Z,99.90
2018-01-17T16:17:22.125Z,99.90
2018-01-17T16:19:49.921Z,99.90
2018-01-17T16:22:17.677Z,99.90
2018-01-17T16:24:45.522Z,99.90
2018-01-17T16:27:14.042Z,99.90
2018-01-17T16:29:41.822Z,99.90
2018-01-17T16:32:09.629Z,99.90
2018-01-17T16:34:38.151Z,99.90
2018-01-17T16:37:05.906Z,99.90
2018-01-17T16:39:33.706Z,99.90
2018-01-17T16:42:02.545Z,99.90
2018-01-17T16:44:30.298Z,99.90
2018-01-17T16:46:58.106Z,99.90
2018-01-17T16:49:25.876Z,99.90
2018-01-17T16:51:53.630Z,99.90
2018-01-17T16:54:21.443Z,99.90
2018-01-17T16:56:49.967Z,99.90
2018-01-17T16:59:17.720Z,99.90
2018-01-17T17:01:45.523Z,99.90
2018-01-17T17:04:13.282Z,99.90
2018-01-17T17:06:41.043Z,99.90
2018-01-17T17:09:09.206Z,99.90
2018-01-17T17:11:36.977Z,99.90
2018-01-17T17:14:04.723Z,99.90
2018-01-17T17:16:32.518Z,99.90
2018-01-17T17:19:01.033Z,99.90
2018-01-17T17:21:28.778Z,99.90
2018-01-17T17:23:56.586Z,99.90
2018-01-17T17:26:24.331Z,99.90
2018-01-17T17:28:52.073Z,99.90
2018-01-17T17:31:19.882Z,99.90
2018-01-17T17:33:47.642Z,99.90
2018-01-17T17:36:15.393Z,99.90
2018-01-17T17:38:43.209Z,99.90
2018-01-17T17:41:10.957Z,99.90
2018-01-17T17:43:38.697Z,99.90
2018-01-17T17:46:06.498Z,99.90
2018-01-17T17:48:34.250Z,99.90
2018-01-17T17:51:02.766Z,99.90
2018-01-17T17:53:30.570Z,99.90
2018-01-17T17:55:58.322Z,99.90
2018-01-17T17:58:26.148Z,99.90
2018-01-17T18:00:53.992Z,99.90
2018-01-17T18:03:21.754Z,99.90
2018-01-17T18:05:49.515Z,99.90
2018-01-17T18:08:17.324Z,99.90
2018-01-17T18:10:45.116Z,99.90
2018-01-17T18:13:13.632Z,99.90
2018-01-17T18:15:41.731Z,99.90
2018-01-17T18:18:09.605Z,99.90
2018-01-17T18:20:37.362Z,99.90
2018-01-17T18:23:05.167Z,99.90
2018-01-17T18:25:32.924Z,99.90
2018-01-17T18:28:01.440Z,99.90
2018-01-17T18:30:29.403Z,99.90
2018-01-17T18:32:57.470Z,99.90
2018-01-17T18:35:25.287Z,99.90
2018-01-17T18:37:59.454Z,99.90
2018-01-17T18:40:27.206Z,99.90
2018-01-17T18:42:55.000Z,99.90
2018-01-17T18:45:22.813Z,99.90
2018-01-17T18:47:50.619Z,99.90
2018-01-17T18:50:18.376Z,99.90
2018-01-17T18:52:46.219Z,99.90
2018-01-17T18:55:13.971Z,99.90
2018-01-17T18:57:41.746Z,99.90
2018-01-17T19:00:09.555Z,99.90
2018-01-17T19:02:38.079Z,99.90
2018-01-17T19:05:05.834Z,99.90
2018-01-17T19:07:33.637Z,99.90
2018-01-17T19:10:01.391Z,99.90
2018-01-17T19:12:29.151Z,99.90
2018-01-17T19:14:56.957Z,99.90
2018-01-17T19:17:25.508Z,99.90
2018-01-17T19:19:53.280Z,99.90
2018-01-17T19:22:21.127Z,99.90
2018-01-17T19:24:48.904Z,99.90
2018-01-17T19:27:16.667Z,99.90
2018-01-17T19:29:45.382Z,99.90
2018-01-17T19:32:13.162Z,99.90
2018-01-17T19:34:40.942Z,99.90
2018-01-17T19:37:09.541Z,99.90
2018-01-17T19:39:37.327Z,99.90
2018-01-17T19:42:05.879Z,99.90
2018-01-17T19:44:33.695Z,99.90
2018-01-17T19:47:01.450Z,99.90
2018-01-17T19:49:29.967Z,99.90
2018-01-17T19:51:57.813Z,99.90
2018-01-17T19:54:25.566Z,99.90
2018-01-17T19:56:53.318Z,99.90
2018-01-17T19:59:22.016Z,99.90
2018-01-17T20:01:49.769Z,99.90
2018-01-17T20:04:17.890Z,99.90
2018-01-17T20:06:45.700Z,99.90
2018-01-17T20:09:13.455Z,99.90
2018-01-17T20:11:41.991Z,99.90
2018-01-17T20:14:09.825Z,99.90
2018-01-17T20:16:37.794Z,99.90
2018-01-17T20:19:06.460Z,99.90
2018-01-17T20:21:34.263Z,99.90
2018-01-17T20:24:03.643Z,99.90
2018-01-17T20:26:32.460Z,99.90
2018-01-17T20:29:00.270Z,99.90
2018-01-17T20:31:28.018Z,99.90
2018-01-17T20:33:56.538Z,99.90
2018-01-17T20:36:24.551Z,99.90
2018-01-17T20:38:53.072Z,99.90
2018-01-17T20:41:20.829Z,99.90
2018-01-17T20:43:48.642Z,99.90
2018-01-17T20:46:16.407Z,99.90
2018-01-17T20:48:44.274Z,99.90
2018-01-17T20:51:13.569Z,99.90
2018-01-17T20:53:41.317Z,99.90
2018-01-17T20:56:09.082Z,99.90
2018-01-17T20:58:37.040Z,99.90
2018-01-17T21:01:04.942Z,99.90
2018-01-17T21:03:33.505Z,99.90
2018-01-17T21:06:01.337Z,99.90
2018-01-17T21:08:29.095Z,99.90
2018-01-17T21:10:56.843Z,99.90
2018-01-17T21:13:24.662Z,99.90
2018-01-17T21:15:53.197Z,99.90
2018-01-17T21:18:20.950Z,99.90
2018-01-17T21:20:49.548Z,99.90
2018-01-17T21:23:17.319Z,99.90
2018-01-17T21:25:45.198Z,99.90
2018-01-17T21:28:13.002Z,99.90
2018-01-17T21:30:40.756Z,99.90
2018-01-17T21:33:08.503Z,99.90
2018-01-17T21:35:37.090Z,99.90
2018-01-17T21:38:05.616Z,99.90
2018-01-17T21:40:33.376Z,99.90
2018-01-17T21:43:06.868Z,99.90
2018-01-17T21:45:40.301Z,99.90
2018-01-17T21:48:08.131Z,99.90
2018-01-17T21:50:35.900Z,99.90
2018-01-17T21:53:03.691Z,99.90
2018-01-17T21:55:31.529Z,99.90
2018-01-17T21:57:59.372Z,99.90
2018-01-17T22:00:27.123Z,99.90
2018-01-17T22:02:54.933Z,99.90
2018-01-17T22:05:22.690Z,99.90
2018-01-17T22:07:50.443Z,99.90
2018-01-17T22:10:18.251Z,99.90
2018-01-17T22:12:46.001Z,99.90
2018-01-17T22:15:14.512Z,99.90
2018-01-17T22:17:42.315Z,99.90
2018-01-17T22:20:10.071Z,99.90
2018-01-17T22:22:37.827Z,99.90
2018-01-17T22:25:05.640Z,99.90
2018-01-17T22:27:33.392Z,99.90
2018-01-17T22:30:01.908Z,99.90
2018-01-17T22:32:29.711Z,99.90
2018-01-17T22:34:57.456Z,99.90
2018-01-17T22:37:25.450Z,99.90
2018-01-17T22:39:54.034Z,99.90
2018-01-17T22:42:22.547Z,99.90
2018-01-17T22:44:50.628Z,99.90
2018-01-17T22:47:18.434Z,99.90
2018-01-17T22:49:46.191Z,99.90
2018-01-17T22:52:13.951Z,99.90
2018-01-17T22:54:41.812Z,99.90
2018-01-17T22:57:09.570Z,99.90
2018-01-17T22:59:37.320Z,99.90
2018-01-17T23:02:05.156Z,99.90
2018-01-17T23:04:32.932Z,99.90
2018-01-17T23:07:00.674Z,99.90
2018-01-17T23:09:28.474Z,99.90
2018-01-17T23:11:56.217Z,99.90
2018-01-17T23:14:23.958Z,99.90
2018-01-17T23:16:51.810Z,99.90
2018-01-17T23:19:19.565Z,99.90
2018-01-17T23:21:48.188Z,99.90
2018-01-17T23:24:16.002Z,99.90
2018-01-17T23:26:44.535Z,99.90
2018-01-17T23:29:12.279Z,99.90
2018-01-17T23:31:40.083Z,99.90
2018-01-17T23:34:07.818Z,99.90
2018-01-17T23:36:35.567Z,99.90
2018-01-17T23:39:04.133Z,99.90
2018-01-17T23:41:31.882Z,99.90
2018-01-17T23:43:59.636Z,99.90
2018-01-17T23:46:28.207Z,99.90
2018-01-17T23:48:55.955Z,99.90
2018-01-17T23:51:23.706Z,99.90
2018-01-17T23:53:51.505Z,99.90
2018-01-17T23:56:20.019Z,99.90
2018-01-17T23:58:47.761Z,99.90
